createdAt,value
2022-09-04T00:01:47.141Z,1.20
2022-09-04T00:06:17.379Z,1.23
2022-09-04T00:10:32.170Z,0.80
2022-09-04T00:14:46.529Z,1.33
2022-09-04T00:19:09.816Z,0.90
2022-09-04T00:23:15.066Z,1.10
2022-09-04T00:27:35.979Z,1.07
2022-09-04T00:31:44.971Z,1.97
2022-09-04T00:35:55.352Z,1.67
2022-09-04T00:40:00.845Z,1.00
2022-09-04T00:44:30.967Z,1.53
2022-09-04T00:49:04.039Z,0.40
2022-09-04T00:53:15.078Z,0.30
2022-09-04T00:57:29.431Z,1.40
2022-09-04T01:01:36.731Z,0.80
2022-09-04T01:06:04.124Z,0.63
2022-09-04T01:10:25.742Z,0.97
2022-09-04T01:14:56.062Z,0.70
2022-09-04T01:19:36.503Z,1.67
2022-09-04T01:24:17.992Z,2.13
2022-09-04T01:28:41.924Z,4.00
2022-09-04T01:33:14.790Z,1.20
2022-09-04T01:37:30.664Z,1.63
2022-09-04T01:41:38.519Z,2.60
2022-09-04T01:45:53.169Z,1.40
2022-09-04T01:50:05.534Z,3.70
2022-09-04T01:54:50.064Z,3.27
2022-09-04T01:59:19.665Z,3.87
2022-09-04T03:29:51.925Z,1.80
2022-09-04T03:34:03.240Z,2.73
2022-09-04T03:38:22.212Z,2.87
2022-09-04T03:42:36.085Z,2.40
2022-09-04T03:46:57.594Z,1.70
2022-09-04T03:51:07.566Z,2.43
2022-09-04T03:55:19.273Z,2.70
2022-09-04T03:59:44.319Z,1.97
2022-09-04T04:04:18.420Z,2.60
2022-09-04T04:08:39.823Z,1.70
2022-09-04T04:13:09.052Z,1.60
2022-09-04T04:17:46.438Z,2.13
2022-09-04T04:22:00.635Z,2.47
2022-09-04T04:26:28.130Z,2.23
2022-09-04T04:30:50.685Z,2.73
2022-09-04T04:35:09.167Z,1.90
2022-09-04T04:39:30.298Z,2.23
2022-09-04T04:43:45.259Z,2.70
2022-09-04T04:48:26.589Z,2.07
2022-09-04T04:57:19.278Z,1.70
2022-09-04T05:01:40.399Z,2.57
2022-09-04T05:06:04.583Z,1.90
2022-09-04T05:10:39.845Z,1.90
2022-09-04T05:15:00.880Z,2.23
2022-09-04T05:19:34.758Z,2.00
2022-09-04T05:23:54.756Z,2.47
2022-09-04T05:28:31.224Z,1.70
2022-09-04T05:32:40.322Z,3.87
2022-09-04T05:41:46.917Z,1.77
2022-09-04T05:45:52.790Z,2.47
2022-09-04T08:42:43.636Z,1.20
2022-09-04T08:47:06.190Z,1.30
2022-09-04T08:51:21.506Z,0.93
2022-09-04T08:55:47.048Z,0.80
2022-09-04T09:00:10.710Z,1.00
2022-09-04T09:04:48.851Z,0.80
2022-09-04T09:09:12.606Z,1.13
2022-09-04T09:13:18.187Z,1.30
2022-09-04T09:17:39.427Z,1.23
2022-09-04T09:21:54.899Z,2.07
2022-09-04T09:26:16.145Z,1.40
2022-09-04T09:30:21.106Z,1.33
2022-09-04T09:34:32.198Z,1.80
2022-09-04T09:38:49.505Z,3.10
2022-09-04T09:43:26.899Z,2.13
2022-09-04T09:47:32.155Z,1.27
2022-09-04T09:52:13.308Z,2.87
2022-09-04T09:56:29.392Z,1.90
2022-09-04T10:01:06.417Z,4.20
2022-09-04T10:05:18.617Z,1.40
2022-09-04T10:09:44.003Z,1.53
2022-09-04T10:13:56.754Z,1.97
2022-09-04T10:18:41.303Z,2.30
2022-09-04T10:23:06.155Z,1.90
2022-09-04T10:27:40.630Z,2.77
2022-09-04T10:32:06.944Z,2.70
2022-09-04T10:36:36.039Z,1.70
2022-09-04T10:40:57.787Z,2.50
2022-09-04T10:45:26.461Z,2.57
2022-09-04T10:49:40.544Z,1.80
2022-09-04T10:54:11.233Z,2.47
2022-09-04T10:58:23.924Z,1.63
2022-09-04T11:02:54.549Z,2.77
2022-09-04T11:07:31.104Z,1.90
2022-09-04T11:11:48.413Z,2.97
2022-09-04T11:16:23.214Z,1.70
2022-09-04T11:20:40.643Z,2.50
2022-09-04T11:25:15.341Z,1.73
2022-09-04T11:29:34.446Z,3.97
2022-09-04T11:34:03.942Z,1.77
2022-09-04T11:38:31.881Z,2.60
2022-09-04T11:42:41.543Z,2.13
2022-09-04T11:47:06.844Z,2.97
2022-09-04T11:51:40.113Z,2.20
2022-09-04T11:55:54.264Z,2.13
2022-09-04T11:59:56.110Z,1.77
2022-09-04T12:04:23.249Z,2.23
2022-09-04T12:08:35.916Z,2.00
2022-09-04T12:12:59.256Z,1.60
2022-09-04T12:17:35.823Z,2.97
2022-09-04T12:22:07.296Z,2.40
2022-09-04T12:26:51.608Z,2.80
2022-09-04T12:31:22.982Z,2.87
2022-09-04T12:35:31.640Z,3.00
2022-09-04T12:39:49.496Z,2.17
2022-09-04T12:44:13.551Z,2.57
2022-09-04T12:48:33.382Z,2.20
2022-09-04T12:52:44.696Z,2.73
2022-09-04T12:57:08.976Z,2.60
2022-09-04T13:01:38.234Z,3.03
2022-09-04T13:06:04.014Z,1.90
2022-09-04T13:10:42.598Z,1.97
2022-09-04T13:15:14.136Z,1.60
2022-09-04T13:19:25.416Z,1.70
2022-09-04T13:23:46.836Z,2.07
2022-09-04T13:28:45.419Z,1.77
2022-09-04T13:32:51.641Z,2.60
2022-09-04T13:37:13.905Z,2.13
2022-09-04T13:41:30.469Z,1.60
2022-09-04T13:45:40.524Z,2.40
2022-09-04T13:49:49.086Z,2.00
2022-09-04T13:54:17.325Z,1.80
2022-09-04T13:58:33.746Z,1.70
2022-09-04T14:02:37.008Z,2.23
2022-09-04T14:06:39.759Z,1.50
2022-09-04T14:11:06.850Z,1.73
2022-09-04T14:15:51.455Z,0.97
2022-09-04T14:20:23.946Z,1.27
2022-09-04T14:24:35.541Z,1.13
2022-09-04T14:28:54.123Z,0.90
2022-09-04T14:33:19.489Z,2.00
2022-09-04T14:37:48.518Z,1.30
2022-09-04T14:42:16.699Z,0.97
2022-09-04T14:47:08.217Z,0.80
2022-09-04T14:51:16.713Z,0.97
2022-09-04T14:55:26.607Z,4.23
2022-09-04T15:00:04.929Z,0.90
2022-09-04T15:04:25.117Z,1.27
2022-09-04T15:08:40.142Z,1.07
2022-09-04T15:13:22.948Z,1.20
2022-09-04T15:17:31.194Z,1.10
2022-09-04T15:21:50.951Z,1.20
2022-09-04T15:26:05.972Z,1.63
2022-09-04T15:30:33.613Z,1.20
2022-09-04T15:34:39.167Z,2.30
2022-09-04T15:38:51.024Z,1.40
2022-09-04T15:43:11.844Z,2.30
2022-09-04T15:47:13.908Z,1.40
2022-09-04T15:51:41.649Z,1.50
2022-09-04T15:55:48.456Z,2.37
2022-09-04T15:59:54.643Z,1.80
2022-09-04T16:04:17.465Z,1.77
2022-09-04T16:08:25.956Z,1.50
2022-09-04T16:12:35.389Z,3.67
2022-09-04T16:16:55.506Z,1.80
2022-09-04T16:21:01.812Z,1.67
2022-09-04T16:25:23.396Z,3.17
2022-09-04T16:29:38.542Z,1.60
2022-09-04T16:33:50.218Z,1.70
2022-09-04T16:38:15.893Z,2.00
2022-09-04T16:42:48.386Z,1.80
2022-09-04T16:47:44.013Z,2.63
2022-09-04T16:52:00.543Z,2.43
2022-09-04T16:56:22.504Z,3.10
2022-09-04T17:00:24.916Z,4.23
2022-09-04T17:04:36.915Z,2.90
2022-09-04T17:08:51.824Z,3.77
2022-09-04T17:13:21.281Z,2.23
2022-09-04T17:17:32.260Z,2.67
2022-09-04T17:25:18.197Z,2.30
2022-09-04T17:28:59.110Z,2.83
2022-09-04T17:30:55.612Z,2.90
2022-09-04T17:40:43.638Z,3.87
2022-09-04T17:40:49.261Z,2.67
2022-09-04T17:44:26.862Z,3.20
2022-09-04T17:48:38.257Z,2.60
2022-09-04T17:52:59.557Z,2.33
2022-09-04T17:57:07.096Z,2.50
2022-09-04T18:01:35.763Z,2.47
2022-09-04T18:05:53.797Z,2.23
2022-09-04T18:10:14.909Z,2.73
2022-09-04T18:14:33.610Z,2.00
2022-09-04T18:19:07.948Z,2.37
2022-09-04T18:23:45.998Z,2.60
2022-09-04T18:28:14.728Z,2.70
2022-09-04T18:37:12.184Z,2.53
2022-09-04T18:37:44.246Z,3.37
2022-09-04T18:49:59.224Z,3.60
2022-09-04T18:50:34.161Z,3.93
2022-09-04T18:51:51.224Z,6.07
2022-09-04T18:56:02.229Z,5.63
2022-09-04T19:00:10.621Z,5.23
2022-09-04T19:04:19.566Z,3.40
2022-09-04T19:08:47.449Z,4.87
2022-09-04T19:12:53.847Z,5.80
2022-09-04T19:16:58.936Z,6.20
2022-09-04T19:21:14.360Z,5.43
2022-09-04T19:25:21.208Z,4.03
2022-09-04T19:29:45.035Z,4.13
2022-09-04T19:33:53.915Z,3.73
2022-09-04T19:44:45.830Z,4.03
2022-09-04T19:46:02.353Z,4.83
2022-09-04T19:47:28.730Z,4.87
2022-09-04T19:53:33.747Z,5.57
2022-09-04T19:56:06.528Z,4.93
2022-09-04T20:00:38.233Z,3.80
2022-09-04T20:04:57.430Z,4.87
2022-09-04T20:09:07.643Z,4.67
2022-09-04T20:13:26.064Z,4.70
2022-09-04T20:18:08.517Z,4.33
2022-09-04T20:22:26.856Z,4.20
2022-09-04T20:26:32.321Z,4.07
2022-09-04T20:30:37.442Z,4.23
2022-09-04T20:34:56.338Z,4.47
2022-09-04T20:39:07.310Z,3.83
2022-09-04T20:43:32.519Z,4.33
2022-09-04T20:52:43.184Z,3.80
2022-09-04T20:53:04.212Z,4.73
2022-09-04T20:58:13.936Z,5.63
2022-09-04T21:03:17.138Z,6.77
2022-09-04T21:05:59.964Z,4.77
2022-09-04T21:10:20.042Z,7.00
2022-09-04T21:14:44.501Z,5.37
2022-09-04T21:19:27.582Z,5.53
2022-09-04T21:23:46.363Z,6.07
2022-09-04T21:28:04.441Z,4.73
2022-09-04T21:32:41.043Z,6.63
2022-09-04T21:37:13.902Z,5.90
2022-09-04T21:41:35.647Z,6.43
2022-09-04T21:46:12.808Z,5.00
2022-09-04T21:51:07.903Z,6.30
2022-09-04T22:00:45.841Z,4.40
2022-09-04T22:02:48.197Z,5.97
2022-09-04T22:04:49.531Z,6.00
2022-09-04T22:13:29.292Z,5.63
2022-09-04T22:14:03.361Z,6.43
2022-09-04T22:18:40.520Z,5.17
2022-09-04T22:23:53.655Z,6.27
2022-09-04T22:28:23.457Z,6.13
2022-09-04T22:32:53.182Z,6.57
2022-09-04T22:37:23.856Z,10.47
2022-09-04T22:41:38.094Z,5.93
2022-09-04T22:45:49.055Z,9.17
2022-09-04T22:50:25.309Z,7.10
2022-09-04T22:55:23.011Z,7.13
2022-09-04T23:00:02.015Z,7.07
2022-09-04T23:04:31.158Z,8.13
2022-09-04T23:13:43.487Z,6.80
2022-09-04T23:13:53.252Z,8.13
2022-09-04T23:18:03.644Z,6.07
2022-09-04T23:26:35.051Z,8.17
2022-09-04T23:27:46.462Z,6.47
2022-09-04T23:31:52.140Z,8.57
2022-09-04T23:36:21.544Z,6.17
2022-09-04T23:40:44.373Z,8.27
2022-09-04T23:45:34.601Z,10.03
2022-09-04T23:49:46.225Z,7.87
2022-09-04T23:54:19.369Z,9.30
2022-09-04T23:58:52.311Z,8.33
